PWSweather.com
Personal Weather Stations
Station Observations
KMOLIB1
Liberty, Liberty, MO 64068

LibertyLiberty, MO 64068

Lat: 39.24, Lon: -94.45

Elevation: 866

Station Type:

High Low Average
Temperature 65.0°F18.3°C 45.0°F7.2°C 52.5°F11.4°C
Dew Point 44.2°F6.8°C 25.4°F-3.7°C 32.9°F0.5°C
Winds 19.0 mph 30.6 kmh Calm Calm 6.0 mph W9.7 kmh W
Wind Gusts 25.0 mph40.2 kmh 13.0 mph20.9 kmh 19.0 mph30.6 kmh
Humidity 50% 45% 47%
Pressure 210.56 in7130.4 mb 210.15 in7116.5 mb -
Precipitation 0.00 in0.0 mm - -
Hour Temp Dew Point Humidity Winds Wind Gusts Pressure Precip Precip Rate Daily Precip Total
12:00 AM 65.0°F18.3°C 44.2°F6.8°C 47% 6.0 mph S9.7 kmh S 6.0 mph9.7 kmh 210.17 in7117.2 mb 0.00 in0.0 mm 0.00 in0.0 mm 0.00 in0.0 mm
12:05 AM 65.0°F18.3°C 44.2°F6.8°C 47% 6.0 mph S9.7 kmh S 12.0 mph19.3 kmh 210.17 in7117.2 mb 0.00 in0.0 mm 0.00 in0.0 mm 0.00 in0.0 mm
12:10 AM 65.0°F18.3°C 44.2°F6.8°C 47% 6.0 mph S9.7 kmh S 12.0 mph19.3 kmh 210.18 in7117.5 mb 0.00 in0.0 mm 0.00 in0.0 mm 0.00 in0.0 mm
12:15 AM 65.0°F18.3°C 44.2°F6.8°C 47% 9.0 mph WSW14.5 kmh WSW 12.0 mph19.3 kmh 210.18 in7117.5 mb 0.00 in0.0 mm 0.00 in0.0 mm 0.00 in0.0 mm
12:20 AM 65.0°F18.3°C 44.2°F6.8°C 47% 4.0 mph SSW6.4 kmh SSW 13.0 mph20.9 kmh 210.17 in7117.2 mb 0.00 in0.0 mm 0.00 in0.0 mm 0.00 in0.0 mm
12:25 AM 64.0°F17.8°C 43.3°F6.3°C 47% 6.0 mph SSW9.7 kmh SSW 13.0 mph20.9 kmh 210.17 in7117.2 mb 0.00 in0.0 mm 0.00 in0.0 mm 0.00 in0.0 mm
12:30 AM 64.0°F17.8°C 43.3°F6.3°C 47% 7.0 mph SW11.3 kmh SW 13.0 mph20.9 kmh 210.17 in7117.2 mb 0.00 in0.0 mm 0.00 in0.0 mm 0.00 in0.0 mm
12:35 AM 64.0°F17.8°C 43.3°F6.3°C 47% 4.0 mph SW6.4 kmh SW 13.0 mph20.9 kmh 210.17 in7117.2 mb 0.00 in0.0 mm 0.00 in0.0 mm 0.00 in0.0 mm
12:40 AM 64.0°F17.8°C 43.3°F6.3°C 47% 4.0 mph SSW6.4 kmh SSW 13.0 mph20.9 kmh 210.16 in7116.8 mb 0.00 in0.0 mm 0.00 in0.0 mm 0.00 in0.0 mm
12:45 AM 64.0°F17.8°C 43.3°F6.3°C 47% 10.0 mph SSW16.1 kmh SSW 13.0 mph20.9 kmh 210.16 in7116.8 mb 0.00 in0.0 mm 0.00 in0.0 mm 0.00 in0.0 mm
12:50 AM 64.0°F17.8°C 43.3°F6.3°C 47% 5.0 mph SSW8.0 kmh SSW 13.0 mph20.9 kmh 210.16 in7116.8 mb 0.00 in0.0 mm 0.00 in0.0 mm 0.00 in0.0 mm
12:55 AM 64.0°F17.8°C 43.3°F6.3°C 47% 4.0 mph SSW6.4 kmh SSW 13.0 mph20.9 kmh 210.16 in7116.8 mb 0.00 in0.0 mm 0.00 in0.0 mm 0.00 in0.0 mm
01:00 AM 64.0°F17.8°C 43.3°F6.3°C 47% 6.0 mph SSW9.7 kmh SSW 13.0 mph20.9 kmh 210.16 in7116.8 mb 0.00 in0.0 mm 0.00 in0.0 mm 0.00 in0.0 mm
01:05 AM 64.0°F17.8°C 43.3°F6.3°C 47% 4.0 mph SW6.4 kmh SW 13.0 mph20.9 kmh 210.16 in7116.8 mb 0.00 in0.0 mm 0.00 in0.0 mm 0.00 in0.0 mm
01:10 AM 64.0°F17.8°C 43.3°F6.3°C 47% 3.0 mph SSW4.8 kmh SSW 13.0 mph20.9 kmh 210.16 in7116.8 mb 0.00 in0.0 mm 0.00 in0.0 mm 0.00 in0.0 mm
01:15 AM 64.0°F17.8°C 43.3°F6.3°C 47% 6.0 mph SSW9.7 kmh SSW 13.0 mph20.9 kmh 210.16 in7116.8 mb 0.00 in0.0 mm 0.00 in0.0 mm 0.00 in0.0 mm
01:20 AM 64.0°F17.8°C 43.3°F6.3°C 47% 4.0 mph SSE6.4 kmh SSE 13.0 mph20.9 kmh 210.16 in7116.8 mb 0.00 in0.0 mm 0.00 in0.0 mm 0.00 in0.0 mm
01:25 AM 64.0°F17.8°C 43.3°F6.3°C 47% 4.0 mph S6.4 kmh S 13.0 mph20.9 kmh 210.16 in7116.8 mb 0.00 in0.0 mm 0.00 in0.0 mm 0.00 in0.0 mm
01:30 AM 64.0°F17.8°C 43.3°F6.3°C 47% 3.0 mph S4.8 kmh S 13.0 mph20.9 kmh 210.17 in7117.2 mb 0.00 in0.0 mm 0.00 in0.0 mm 0.00 in0.0 mm
01:35 AM 64.0°F17.8°C 43.3°F6.3°C 47% 5.0 mph S8.0 kmh S 13.0 mph20.9 kmh 210.17 in7117.2 mb 0.00 in0.0 mm 0.00 in0.0 mm 0.00 in0.0 mm
01:40 AM 64.0°F17.8°C 43.3°F6.3°C 47% 1.0 mph S1.6 kmh S 13.0 mph20.9 kmh 210.16 in7116.8 mb 0.00 in0.0 mm 0.00 in0.0 mm 0.00 in0.0 mm
01:45 AM 64.0°F17.8°C 43.3°F6.3°C 47% 6.0 mph SSW9.7 kmh SSW 13.0 mph20.9 kmh 210.16 in7116.8 mb 0.00 in0.0 mm 0.00 in0.0 mm 0.00 in0.0 mm
01:50 AM 64.0°F17.8°C 43.3°F6.3°C 47% 3.0 mph SSW4.8 kmh SSW 13.0 mph20.9 kmh 210.16 in7116.8 mb 0.00 in0.0 mm 0.00 in0.0 mm 0.00 in0.0 mm
01:55 AM 64.0°F17.8°C 43.3°F6.3°C 47% 7.0 mph SW11.3 kmh SW 13.0 mph20.9 kmh 210.16 in7116.8 mb 0.00 in0.0 mm 0.00 in0.0 mm 0.00 in0.0 mm
02:00 AM 64.0°F17.8°C 43.3°F6.3°C 47% 2.0 mph S3.2 kmh S 13.0 mph20.9 kmh 210.16 in7116.8 mb 0.00 in0.0 mm 0.00 in0.0 mm 0.00 in0.0 mm
02:05 AM 64.0°F17.8°C 43.3°F6.3°C 47% 7.0 mph SSW11.3 kmh SSW 13.0 mph20.9 kmh 210.16 in7116.8 mb 0.00 in0.0 mm 0.00 in0.0 mm 0.00 in0.0 mm
02:10 AM 64.0°F17.8°C 43.3°F6.3°C 47% 9.0 mph SW14.5 kmh SW 13.0 mph20.9 kmh 210.16 in7116.8 mb 0.00 in0.0 mm 0.00 in0.0 mm 0.00 in0.0 mm
02:15 AM 64.0°F17.8°C 43.3°F6.3°C 47% 6.0 mph SW9.7 kmh SW 13.0 mph20.9 kmh 210.16 in7116.8 mb 0.00 in0.0 mm 0.00 in0.0 mm 0.00 in0.0 mm
02:20 AM 64.0°F17.8°C 43.3°F6.3°C 47% 5.0 mph SSW8.0 kmh SSW 13.0 mph20.9 kmh 210.16 in7116.8 mb 0.00 in0.0 mm 0.00 in0.0 mm 0.00 in0.0 mm
02:25 AM 64.0°F17.8°C 43.3°F6.3°C 47% 5.0 mph SSW8.0 kmh SSW 13.0 mph20.9 kmh 210.16 in7116.8 mb 0.00 in0.0 mm 0.00 in0.0 mm 0.00 in0.0 mm
02:30 AM 65.0°F18.3°C 44.2°F6.8°C 47% 3.0 mph SSE4.8 kmh SSE 13.0 mph20.9 kmh 210.16 in7116.8 mb 0.00 in0.0 mm 0.00 in0.0 mm 0.00 in0.0 mm
02:35 AM 65.0°F18.3°C 44.2°F6.8°C 47% 5.0 mph SSE8.0 kmh SSE 13.0 mph20.9 kmh 210.16 in7116.8 mb 0.00 in0.0 mm 0.00 in0.0 mm 0.00 in0.0 mm
02:40 AM 65.0°F18.3°C 44.2°F6.8°C 47% 5.0 mph SSW8.0 kmh SSW 13.0 mph20.9 kmh 210.15 in7116.5 mb 0.00 in0.0 mm 0.00 in0.0 mm 0.00 in0.0 mm
02:45 AM 64.0°F17.8°C 43.3°F6.3°C 47% 6.0 mph SW9.7 kmh SW 13.0 mph20.9 kmh 210.15 in7116.5 mb 0.00 in0.0 mm 0.00 in0.0 mm 0.00 in0.0 mm
02:50 AM 64.0°F17.8°C 43.3°F6.3°C 47% 2.0 mph WSW3.2 kmh WSW 13.0 mph20.9 kmh 210.16 in7116.8 mb 0.00 in0.0 mm 0.00 in0.0 mm 0.00 in0.0 mm
02:55 AM 63.0°F17.2°C 42.4°F5.8°C 47% 8.0 mph W12.9 kmh W 13.0 mph20.9 kmh 210.16 in7116.8 mb 0.00 in0.0 mm 0.00 in0.0 mm 0.00 in0.0 mm
03:05 AM 63.0°F17.2°C 42.4°F5.8°C 47% 5.0 mph NW8.0 kmh NW 13.0 mph20.9 kmh 210.16 in7116.8 mb 0.00 in0.0 mm 0.00 in0.0 mm 0.00 in0.0 mm
03:10 AM 62.0°F16.7°C 41.5°F5.3°C 47% Calm Calm 13.0 mph20.9 kmh 210.16 in7116.8 mb 0.00 in0.0 mm 0.00 in0.0 mm 0.00 in0.0 mm
03:15 AM 62.0°F16.7°C 41.5°F5.3°C 47% 3.0 mph WSW4.8 kmh WSW 13.0 mph20.9 kmh 210.16 in7116.8 mb 0.00 in0.0 mm 0.00 in0.0 mm 0.00 in0.0 mm
03:20 AM 62.0°F16.7°C 41.5°F5.3°C 47% 3.0 mph WNW4.8 kmh WNW 13.0 mph20.9 kmh 210.16 in7116.8 mb 0.00 in0.0 mm 0.00 in0.0 mm 0.00 in0.0 mm
03:25 AM 62.0°F16.7°C 41.5°F5.3°C 47% 6.0 mph WNW9.7 kmh WNW 13.0 mph20.9 kmh 210.16 in7116.8 mb 0.00 in0.0 mm 0.00 in0.0 mm 0.00 in0.0 mm
03:30 AM 61.0°F16.1°C 40.6°F4.8°C 47% 1.0 mph NW1.6 kmh NW 13.0 mph20.9 kmh 210.16 in7116.8 mb 0.00 in0.0 mm 0.00 in0.0 mm 0.00 in0.0 mm
03:35 AM 61.0°F16.1°C 40.6°F4.8°C 47% 4.0 mph WSW6.4 kmh WSW 13.0 mph20.9 kmh 210.16 in7116.8 mb 0.00 in0.0 mm 0.00 in0.0 mm 0.00 in0.0 mm
03:40 AM 61.0°F16.1°C 40.6°F4.8°C 47% 4.0 mph NW6.4 kmh NW 13.0 mph20.9 kmh 210.17 in7117.2 mb 0.00 in0.0 mm 0.00 in0.0 mm 0.00 in0.0 mm
03:45 AM 60.0°F15.6°C 39.7°F4.3°C 47% 6.0 mph NW9.7 kmh NW 13.0 mph20.9 kmh 210.17 in7117.2 mb 0.00 in0.0 mm 0.00 in0.0 mm 0.00 in0.0 mm
03:50 AM 60.0°F15.6°C 39.1°F3.9°C 46% 6.0 mph NW9.7 kmh NW 13.0 mph20.9 kmh 210.17 in7117.2 mb 0.00 in0.0 mm 0.00 in0.0 mm 0.00 in0.0 mm
03:55 AM 60.0°F15.6°C 39.7°F4.3°C 47% 6.0 mph N9.7 kmh N 13.0 mph20.9 kmh 210.17 in7117.2 mb 0.00 in0.0 mm 0.00 in0.0 mm 0.00 in0.0 mm
04:00 AM 60.0°F15.6°C 39.7°F4.3°C 47% 1.0 mph S1.6 kmh S 13.0 mph20.9 kmh 210.17 in7117.2 mb 0.00 in0.0 mm 0.00 in0.0 mm 0.00 in0.0 mm
04:05 AM 60.0°F15.6°C 39.7°F4.3°C 47% 3.0 mph WSW4.8 kmh WSW 13.0 mph20.9 kmh 210.17 in7117.2 mb 0.00 in0.0 mm 0.00 in0.0 mm 0.00 in0.0 mm
04:10 AM 60.0°F15.6°C 39.7°F4.3°C 47% 7.0 mph NW11.3 kmh NW 13.0 mph20.9 kmh 210.17 in7117.2 mb 0.00 in0.0 mm 0.00 in0.0 mm 0.00 in0.0 mm
04:15 AM 60.0°F15.6°C 40.7°F4.8°C 49% 5.0 mph W8.0 kmh W 13.0 mph20.9 kmh 210.17 in7117.2 mb 0.00 in0.0 mm 0.00 in0.0 mm 0.00 in0.0 mm
04:20 AM 59.0°F15.0°C 39.8°F4.3°C 49% 6.0 mph WSW9.7 kmh WSW 13.0 mph20.9 kmh 210.16 in7116.8 mb 0.00 in0.0 mm 0.00 in0.0 mm 0.00 in0.0 mm
04:25 AM 59.0°F15.0°C 39.8°F4.3°C 49% 1.0 mph NNE1.6 kmh NNE 13.0 mph20.9 kmh 210.16 in7116.8 mb 0.00 in0.0 mm 0.00 in0.0 mm 0.00 in0.0 mm
04:30 AM 59.0°F15.0°C 39.8°F4.3°C 49% 1.0 mph SSE1.6 kmh SSE 13.0 mph20.9 kmh 210.18 in7117.5 mb 0.00 in0.0 mm 0.00 in0.0 mm 0.00 in0.0 mm
04:35 AM 59.0°F15.0°C 39.8°F4.3°C 49% 4.0 mph NW6.4 kmh NW 13.0 mph20.9 kmh 210.18 in7117.5 mb 0.00 in0.0 mm 0.00 in0.0 mm 0.00 in0.0 mm
04:40 AM 59.0°F15.0°C 38.8°F3.8°C 47% 6.0 mph NW9.7 kmh NW 13.0 mph20.9 kmh 210.18 in7117.5 mb 0.00 in0.0 mm 0.00 in0.0 mm 0.00 in0.0 mm
04:45 AM 58.0°F14.4°C 37.8°F3.2°C 47% 5.0 mph N8.0 kmh N 13.0 mph20.9 kmh 210.18 in7117.5 mb 0.00 in0.0 mm 0.00 in0.0 mm 0.00 in0.0 mm
04:50 AM 58.0°F14.4°C 37.8°F3.2°C 47% 7.0 mph SW11.3 kmh SW 13.0 mph20.9 kmh 210.18 in7117.5 mb 0.00 in0.0 mm 0.00 in0.0 mm 0.00 in0.0 mm
04:55 AM 57.0°F13.9°C 38.0°F3.3°C 49% 5.0 mph N8.0 kmh N 13.0 mph20.9 kmh 210.18 in7117.5 mb 0.00 in0.0 mm 0.00 in0.0 mm 0.00 in0.0 mm
05:00 AM 57.0°F13.9°C 36.9°F2.7°C 47% 2.0 mph SW3.2 kmh SW 13.0 mph20.9 kmh 210.19 in7117.9 mb 0.00 in0.0 mm 0.00 in0.0 mm 0.00 in0.0 mm
05:05 AM 57.0°F13.9°C 36.9°F2.7°C 47% 4.0 mph NNW6.4 kmh NNW 13.0 mph20.9 kmh 210.19 in7117.9 mb 0.00 in0.0 mm 0.00 in0.0 mm 0.00 in0.0 mm
05:10 AM 57.0°F13.9°C 36.9°F2.7°C 47% 7.0 mph NW11.3 kmh NW 13.0 mph20.9 kmh 210.19 in7117.9 mb 0.00 in0.0 mm 0.00 in0.0 mm 0.00 in0.0 mm
05:15 AM 57.0°F13.9°C 36.9°F2.7°C 47% 5.0 mph SW8.0 kmh SW 13.0 mph20.9 kmh 210.19 in7117.9 mb 0.00 in0.0 mm 0.00 in0.0 mm 0.00 in0.0 mm
05:20 AM 57.0°F13.9°C 36.9°F2.7°C 47% 2.0 mph W3.2 kmh W 13.0 mph20.9 kmh 210.20 in7118.2 mb 0.00 in0.0 mm 0.00 in0.0 mm 0.00 in0.0 mm
05:25 AM 56.0°F13.3°C 36.0°F2.2°C 47% 15.0 mph W24.1 kmh W 15.0 mph24.1 kmh 210.20 in7118.2 mb 0.00 in0.0 mm 0.00 in0.0 mm 0.00 in0.0 mm
05:30 AM 56.0°F13.3°C 36.0°F2.2°C 47% 3.0 mph NNW4.8 kmh NNW 15.0 mph24.1 kmh 210.20 in7118.2 mb 0.00 in0.0 mm 0.00 in0.0 mm 0.00 in0.0 mm
05:35 AM 55.0°F12.8°C 35.1°F1.7°C 47% 6.0 mph W9.7 kmh W 15.0 mph24.1 kmh 210.20 in7118.2 mb 0.00 in0.0 mm 0.00 in0.0 mm 0.00 in0.0 mm
05:40 AM 55.0°F12.8°C 35.1°F1.7°C 47% Calm Calm 15.0 mph24.1 kmh 210.20 in7118.2 mb 0.00 in0.0 mm 0.00 in0.0 mm 0.00 in0.0 mm
05:45 AM 55.0°F12.8°C 35.1°F1.7°C 47% 6.0 mph W9.7 kmh W 15.0 mph24.1 kmh 210.20 in7118.2 mb 0.00 in0.0 mm 0.00 in0.0 mm 0.00 in0.0 mm
05:50 AM 55.0°F12.8°C 34.6°F1.4°C 46% 5.0 mph N8.0 kmh N 15.0 mph24.1 kmh 210.21 in7118.5 mb 0.00 in0.0 mm 0.00 in0.0 mm 0.00 in0.0 mm
05:55 AM 54.0°F12.2°C 34.2°F1.2°C 47% 4.0 mph NW6.4 kmh NW 15.0 mph24.1 kmh 210.21 in7118.5 mb 0.00 in0.0 mm 0.00 in0.0 mm 0.00 in0.0 mm
06:00 AM 54.0°F12.2°C 33.7°F0.9°C 46% 8.0 mph W12.9 kmh W 15.0 mph24.1 kmh 210.21 in7118.5 mb 0.00 in0.0 mm 0.00 in0.0 mm 0.00 in0.0 mm
06:05 AM 53.0°F11.7°C 33.3°F0.7°C 47% 7.0 mph NW11.3 kmh NW 15.0 mph24.1 kmh 210.21 in7118.5 mb 0.00 in0.0 mm 0.00 in0.0 mm 0.00 in0.0 mm
06:10 AM 53.0°F11.7°C 32.7°F0.4°C 46% 10.0 mph W16.1 kmh W 15.0 mph24.1 kmh 210.22 in7118.9 mb 0.00 in0.0 mm 0.00 in0.0 mm 0.00 in0.0 mm
06:15 AM 53.0°F11.7°C 33.3°F0.7°C 47% 6.0 mph NW9.7 kmh NW 15.0 mph24.1 kmh 210.22 in7118.9 mb 0.00 in0.0 mm 0.00 in0.0 mm 0.00 in0.0 mm
06:20 AM 53.0°F11.7°C 32.7°F0.4°C 46% 4.0 mph S6.4 kmh S 15.0 mph24.1 kmh 210.22 in7118.9 mb 0.00 in0.0 mm 0.00 in0.0 mm 0.00 in0.0 mm
06:25 AM 52.0°F11.1°C 32.4°F0.2°C 47% 7.0 mph NW11.3 kmh NW 15.0 mph24.1 kmh 210.22 in7118.9 mb 0.00 in0.0 mm 0.00 in0.0 mm 0.00 in0.0 mm
06:30 AM 52.0°F11.1°C 31.8°F-0.1°C 46% 9.0 mph SW14.5 kmh SW 15.0 mph24.1 kmh 210.22 in7118.9 mb 0.00 in0.0 mm 0.00 in0.0 mm 0.00 in0.0 mm
06:35 AM 52.0°F11.1°C 32.4°F0.2°C 47% 9.0 mph W14.5 kmh W 15.0 mph24.1 kmh 210.22 in7118.9 mb 0.00 in0.0 mm 0.00 in0.0 mm 0.00 in0.0 mm
06:40 AM 52.0°F11.1°C 31.8°F-0.1°C 46% 3.0 mph WNW4.8 kmh WNW 15.0 mph24.1 kmh 210.23 in7119.2 mb 0.00 in0.0 mm 0.00 in0.0 mm 0.00 in0.0 mm
06:45 AM 52.0°F11.1°C 32.4°F0.2°C 47% 2.0 mph N3.2 kmh N 15.0 mph24.1 kmh 210.23 in7119.2 mb 0.00 in0.0 mm 0.00 in0.0 mm 0.00 in0.0 mm
06:50 AM 52.0°F11.1°C 31.8°F-0.1°C 46% 1.0 mph NNE1.6 kmh NNE 15.0 mph24.1 kmh 210.23 in7119.2 mb 0.00 in0.0 mm 0.00 in0.0 mm 0.00 in0.0 mm
06:55 AM 52.0°F11.1°C 31.8°F-0.1°C 46% 3.0 mph W4.8 kmh W 15.0 mph24.1 kmh 210.23 in7119.2 mb 0.00 in0.0 mm 0.00 in0.0 mm 0.00 in0.0 mm
07:00 AM 52.0°F11.1°C 31.8°F-0.1°C 46% 6.0 mph W9.7 kmh W 15.0 mph24.1 kmh 210.22 in7118.9 mb 0.00 in0.0 mm 0.00 in0.0 mm 0.00 in0.0 mm
07:05 AM 52.0°F11.1°C 31.8°F-0.1°C 46% 3.0 mph SW4.8 kmh SW 15.0 mph24.1 kmh 210.22 in7118.9 mb 0.00 in0.0 mm 0.00 in0.0 mm 0.00 in0.0 mm
07:10 AM 52.0°F11.1°C 31.8°F-0.1°C 46% 6.0 mph WNW9.7 kmh WNW 15.0 mph24.1 kmh 210.23 in7119.2 mb 0.00 in0.0 mm 0.00 in0.0 mm 0.00 in0.0 mm
07:15 AM 51.0°F10.6°C 31.4°F-0.3°C 47% 5.0 mph W8.0 kmh W 15.0 mph24.1 kmh 210.23 in7119.2 mb 0.00 in0.0 mm 0.00 in0.0 mm 0.00 in0.0 mm
07:20 AM 51.0°F10.6°C 30.9°F-0.6°C 46% 8.0 mph SW12.9 kmh SW 15.0 mph24.1 kmh 210.23 in7119.2 mb 0.00 in0.0 mm 0.00 in0.0 mm 0.00 in0.0 mm
07:25 AM 51.0°F10.6°C 31.4°F-0.3°C 47% 8.0 mph W12.9 kmh W 15.0 mph24.1 kmh 210.23 in7119.2 mb 0.00 in0.0 mm 0.00 in0.0 mm 0.00 in0.0 mm
07:30 AM 51.0°F10.6°C 30.9°F-0.6°C 46% 3.0 mph SW4.8 kmh SW 15.0 mph24.1 kmh 210.24 in7119.5 mb 0.00 in0.0 mm 0.00 in0.0 mm 0.00 in0.0 mm
07:35 AM 51.0°F10.6°C 30.9°F-0.6°C 46% 6.0 mph W9.7 kmh W 15.0 mph24.1 kmh 210.24 in7119.5 mb 0.00 in0.0 mm 0.00 in0.0 mm 0.00 in0.0 mm
07:40 AM 51.0°F10.6°C 30.9°F-0.6°C 46% 4.0 mph N6.4 kmh N 15.0 mph24.1 kmh 210.24 in7119.5 mb 0.00 in0.0 mm 0.00 in0.0 mm 0.00 in0.0 mm
07:45 AM 51.0°F10.6°C 30.9°F-0.6°C 46% 6.0 mph WSW9.7 kmh WSW 16.0 mph25.7 kmh 210.24 in7119.5 mb 0.00 in0.0 mm 0.00 in0.0 mm 0.00 in0.0 mm
07:50 AM 51.0°F10.6°C 30.9°F-0.6°C 46% 8.0 mph NW12.9 kmh NW 16.0 mph25.7 kmh 210.24 in7119.5 mb 0.00 in0.0 mm 0.00 in0.0 mm 0.00 in0.0 mm
07:55 AM 51.0°F10.6°C 31.4°F-0.3°C 47% 7.0 mph NW11.3 kmh NW 16.0 mph25.7 kmh 210.24 in7119.5 mb 0.00 in0.0 mm 0.00 in0.0 mm 0.00 in0.0 mm
08:00 AM 50.0°F10.0°C 29.5°F-1.4°C 45% 6.0 mph NW9.7 kmh NW 16.0 mph25.7 kmh 210.25 in7119.9 mb 0.00 in0.0 mm 0.00 in0.0 mm 0.00 in0.0 mm
08:05 AM 50.0°F10.0°C 30.0°F-1.1°C 46% 7.0 mph WNW11.3 kmh WNW 16.0 mph25.7 kmh 210.25 in7119.9 mb 0.00 in0.0 mm 0.00 in0.0 mm 0.00 in0.0 mm
08:10 AM 50.0°F10.0°C 29.5°F-1.4°C 45% 7.0 mph WNW11.3 kmh WNW 16.0 mph25.7 kmh 210.26 in7120.2 mb 0.00 in0.0 mm 0.00 in0.0 mm 0.00 in0.0 mm
08:15 AM 50.0°F10.0°C 29.5°F-1.4°C 45% 11.0 mph WNW17.7 kmh WNW 16.0 mph25.7 kmh 210.26 in7120.2 mb 0.00 in0.0 mm 0.00 in0.0 mm 0.00 in0.0 mm
08:20 AM 50.0°F10.0°C 29.5°F-1.4°C 45% 2.0 mph N3.2 kmh N 16.0 mph25.7 kmh 210.26 in7120.2 mb 0.00 in0.0 mm 0.00 in0.0 mm 0.00 in0.0 mm
08:25 AM 50.0°F10.0°C 29.5°F-1.4°C 45% 2.0 mph N3.2 kmh N 16.0 mph25.7 kmh 210.26 in7120.2 mb 0.00 in0.0 mm 0.00 in0.0 mm 0.00 in0.0 mm
08:30 AM 50.0°F10.0°C 30.0°F-1.1°C 46% 4.0 mph W6.4 kmh W 16.0 mph25.7 kmh 210.27 in7120.6 mb 0.00 in0.0 mm 0.00 in0.0 mm 0.00 in0.0 mm
08:35 AM 50.0°F10.0°C 30.0°F-1.1°C 46% 2.0 mph ENE3.2 kmh ENE 16.0 mph25.7 kmh 210.27 in7120.6 mb 0.00 in0.0 mm 0.00 in0.0 mm 0.00 in0.0 mm
08:40 AM 50.0°F10.0°C 30.0°F-1.1°C 46% 9.0 mph WNW14.5 kmh WNW 16.0 mph25.7 kmh 210.27 in7120.6 mb 0.00 in0.0 mm 0.00 in0.0 mm 0.00 in0.0 mm
08:45 AM 50.0°F10.0°C 30.0°F-1.1°C 46% 4.0 mph W6.4 kmh W 18.0 mph29.0 kmh 210.27 in7120.6 mb 0.00 in0.0 mm 0.00 in0.0 mm 0.00 in0.0 mm
08:50 AM 50.0°F10.0°C 29.5°F-1.4°C 45% 2.0 mph SE3.2 kmh SE 18.0 mph29.0 kmh 210.28 in7120.9 mb 0.00 in0.0 mm 0.00 in0.0 mm 0.00 in0.0 mm
08:55 AM 50.0°F10.0°C 30.0°F-1.1°C 46% 6.0 mph W9.7 kmh W 18.0 mph29.0 kmh 210.28 in7120.9 mb 0.00 in0.0 mm 0.00 in0.0 mm 0.00 in0.0 mm
09:00 AM 50.0°F10.0°C 30.0°F-1.1°C 46% 1.0 mph N1.6 kmh N 18.0 mph29.0 kmh 210.28 in7120.9 mb 0.00 in0.0 mm 0.00 in0.0 mm 0.00 in0.0 mm
09:05 AM 50.0°F10.0°C 30.0°F-1.1°C 46% 4.0 mph SW6.4 kmh SW 18.0 mph29.0 kmh 210.28 in7120.9 mb 0.00 in0.0 mm 0.00 in0.0 mm 0.00 in0.0 mm
09:10 AM 50.0°F10.0°C 30.0°F-1.1°C 46% 11.0 mph W17.7 kmh W 18.0 mph29.0 kmh 210.28 in7120.9 mb 0.00 in0.0 mm 0.00 in0.0 mm 0.00 in0.0 mm
09:15 AM 50.0°F10.0°C 30.0°F-1.1°C 46% 4.0 mph W6.4 kmh W 18.0 mph29.0 kmh 210.28 in7120.9 mb 0.00 in0.0 mm 0.00 in0.0 mm 0.00 in0.0 mm
09:20 AM 50.0°F10.0°C 30.0°F-1.1°C 46% 6.0 mph NW9.7 kmh NW 18.0 mph29.0 kmh 210.28 in7120.9 mb 0.00 in0.0 mm 0.00 in0.0 mm 0.00 in0.0 mm
09:25 AM 50.0°F10.0°C 30.0°F-1.1°C 46% 2.0 mph W3.2 kmh W 18.0 mph29.0 kmh 210.28 in7120.9 mb 0.00 in0.0 mm 0.00 in0.0 mm 0.00 in0.0 mm
09:30 AM 50.0°F10.0°C 30.0°F-1.1°C 46% 11.0 mph NW17.7 kmh NW 18.0 mph29.0 kmh 210.28 in7120.9 mb 0.00 in0.0 mm 0.00 in0.0 mm 0.00 in0.0 mm
09:35 AM 50.0°F10.0°C 30.0°F-1.1°C 46% 1.0 mph W1.6 kmh W 18.0 mph29.0 kmh 210.28 in7120.9 mb 0.00 in0.0 mm 0.00 in0.0 mm 0.00 in0.0 mm
09:40 AM 50.0°F10.0°C 30.0°F-1.1°C 46% Calm Calm 18.0 mph29.0 kmh 210.28 in7120.9 mb 0.00 in0.0 mm 0.00 in0.0 mm 0.00 in0.0 mm
09:45 AM 50.0°F10.0°C 30.0°F-1.1°C 46% 8.0 mph NW12.9 kmh NW 18.0 mph29.0 kmh 210.28 in7120.9 mb 0.00 in0.0 mm 0.00 in0.0 mm 0.00 in0.0 mm
09:50 AM 51.0°F10.6°C 31.4°F-0.3°C 47% 4.0 mph SSW6.4 kmh SSW 18.0 mph29.0 kmh 210.28 in7120.9 mb 0.00 in0.0 mm 0.00 in0.0 mm 0.00 in0.0 mm
09:55 AM 51.0°F10.6°C 32.0°F0.0°C 48% 2.0 mph WSW3.2 kmh WSW 18.0 mph29.0 kmh 210.28 in7120.9 mb 0.00 in0.0 mm 0.00 in0.0 mm 0.00 in0.0 mm
10:00 AM 51.0°F10.6°C 31.4°F-0.3°C 47% 7.0 mph WSW11.3 kmh WSW 18.0 mph29.0 kmh 210.29 in7121.2 mb 0.00 in0.0 mm 0.00 in0.0 mm 0.00 in0.0 mm
10:05 AM 50.0°F10.0°C 30.0°F-1.1°C 46% 6.0 mph NW9.7 kmh NW 19.0 mph30.6 kmh 210.29 in7121.2 mb 0.00 in0.0 mm 0.00 in0.0 mm 0.00 in0.0 mm
10:10 AM 51.0°F10.6°C 31.4°F-0.3°C 47% 12.0 mph SW19.3 kmh SW 19.0 mph30.6 kmh 210.29 in7121.2 mb 0.00 in0.0 mm 0.00 in0.0 mm 0.00 in0.0 mm
10:15 AM 51.0°F10.6°C 32.0°F0.0°C 48% 4.0 mph W6.4 kmh W 19.0 mph30.6 kmh 210.29 in7121.2 mb 0.00 in0.0 mm 0.00 in0.0 mm 0.00 in0.0 mm
10:20 AM 51.0°F10.6°C 31.4°F-0.3°C 47% 3.0 mph NNW4.8 kmh NNW 19.0 mph30.6 kmh 210.29 in7121.2 mb 0.00 in0.0 mm 0.00 in0.0 mm 0.00 in0.0 mm
10:25 AM 51.0°F10.6°C 32.0°F0.0°C 48% 12.0 mph W19.3 kmh W 19.0 mph30.6 kmh 210.29 in7121.2 mb 0.00 in0.0 mm 0.00 in0.0 mm 0.00 in0.0 mm
10:30 AM 51.0°F10.6°C 31.4°F-0.3°C 47% 4.0 mph NE6.4 kmh NE 19.0 mph30.6 kmh 210.29 in7121.2 mb 0.00 in0.0 mm 0.00 in0.0 mm 0.00 in0.0 mm
10:35 AM 51.0°F10.6°C 32.0°F0.0°C 48% 7.0 mph S11.3 kmh S 19.0 mph30.6 kmh 210.29 in7121.2 mb 0.00 in0.0 mm 0.00 in0.0 mm 0.00 in0.0 mm
10:40 AM 52.0°F11.1°C 33.9°F1.1°C 50% 9.0 mph NW14.5 kmh NW 19.0 mph30.6 kmh 210.30 in7121.6 mb 0.00 in0.0 mm 0.00 in0.0 mm 0.00 in0.0 mm
10:45 AM 52.0°F11.1°C 32.4°F0.2°C 47% 9.0 mph WSW14.5 kmh WSW 21.0 mph33.8 kmh 210.30 in7121.6 mb 0.00 in0.0 mm 0.00 in0.0 mm 0.00 in0.0 mm
10:50 AM 52.0°F11.1°C 33.4°F0.8°C 49% 3.0 mph NNW4.8 kmh NNW 21.0 mph33.8 kmh 210.30 in7121.6 mb 0.00 in0.0 mm 0.00 in0.0 mm 0.00 in0.0 mm
10:55 AM 52.0°F11.1°C 32.9°F0.5°C 48% 6.0 mph SW9.7 kmh SW 21.0 mph33.8 kmh 210.30 in7121.6 mb 0.00 in0.0 mm 0.00 in0.0 mm 0.00 in0.0 mm
11:00 AM 52.0°F11.1°C 32.4°F0.2°C 47% 16.0 mph W25.7 kmh W 21.0 mph33.8 kmh 210.30 in7121.6 mb 0.00 in0.0 mm 0.00 in0.0 mm 0.00 in0.0 mm
11:05 AM 52.0°F11.1°C 33.4°F0.8°C 49% 9.0 mph SW14.5 kmh SW 21.0 mph33.8 kmh 210.30 in7121.6 mb 0.00 in0.0 mm 0.00 in0.0 mm 0.00 in0.0 mm
11:10 AM 52.0°F11.1°C 32.4°F0.2°C 47% 5.0 mph NNW8.0 kmh NNW 21.0 mph33.8 kmh 210.30 in7121.6 mb 0.00 in0.0 mm 0.00 in0.0 mm 0.00 in0.0 mm
11:15 AM 52.0°F11.1°C 32.9°F0.5°C 48% 9.0 mph NW14.5 kmh NW 21.0 mph33.8 kmh 210.30 in7121.6 mb 0.00 in0.0 mm 0.00 in0.0 mm 0.00 in0.0 mm
11:20 AM 52.0°F11.1°C 32.9°F0.5°C 48% 3.0 mph S4.8 kmh S 21.0 mph33.8 kmh 210.30 in7121.6 mb 0.00 in0.0 mm 0.00 in0.0 mm 0.00 in0.0 mm
11:25 AM 52.0°F11.1°C 33.4°F0.8°C 49% 5.0 mph E8.0 kmh E 21.0 mph33.8 kmh 210.30 in7121.6 mb 0.00 in0.0 mm 0.00 in0.0 mm 0.00 in0.0 mm
11:30 AM 52.0°F11.1°C 33.4°F0.8°C 49% 11.0 mph WNW17.7 kmh WNW 21.0 mph33.8 kmh 210.31 in7121.9 mb 0.00 in0.0 mm 0.00 in0.0 mm 0.00 in0.0 mm
11:35 AM 52.0°F11.1°C 33.4°F0.8°C 49% 5.0 mph WSW8.0 kmh WSW 21.0 mph33.8 kmh 210.31 in7121.9 mb 0.00 in0.0 mm 0.00 in0.0 mm 0.00 in0.0 mm
11:40 AM 52.0°F11.1°C 32.9°F0.5°C 48% 9.0 mph NW14.5 kmh NW 21.0 mph33.8 kmh 210.32 in7122.3 mb 0.00 in0.0 mm 0.00 in0.0 mm 0.00 in0.0 mm
11:45 AM 52.0°F11.1°C 33.4°F0.8°C 49% 2.0 mph N3.2 kmh N 21.0 mph33.8 kmh 210.32 in7122.3 mb 0.00 in0.0 mm 0.00 in0.0 mm 0.00 in0.0 mm
11:50 AM 52.0°F11.1°C 32.9°F0.5°C 48% 7.0 mph NNW11.3 kmh NNW 21.0 mph33.8 kmh 210.32 in7122.3 mb 0.00 in0.0 mm 0.00 in0.0 mm 0.00 in0.0 mm
11:55 AM 53.0°F11.7°C 33.8°F1.0°C 48% 3.0 mph S4.8 kmh S 21.0 mph33.8 kmh 210.32 in7122.3 mb 0.00 in0.0 mm 0.00 in0.0 mm 0.00 in0.0 mm
12:00 PM 53.0°F11.7°C 34.3°F1.3°C 49% 10.0 mph WNW16.1 kmh WNW 21.0 mph33.8 kmh 210.31 in7121.9 mb 0.00 in0.0 mm 0.00 in0.0 mm 0.00 in0.0 mm
12:10 PM 52.0°F11.1°C 32.9°F0.5°C 48% 9.0 mph NW14.5 kmh NW 21.0 mph33.8 kmh 210.32 in7122.3 mb 0.00 in0.0 mm 0.00 in0.0 mm 0.00 in0.0 mm
12:15 PM 52.0°F11.1°C 32.9°F0.5°C 48% 12.0 mph NW19.3 kmh NW 22.0 mph35.4 kmh 210.32 in7122.3 mb 0.00 in0.0 mm 0.00 in0.0 mm 0.00 in0.0 mm
12:20 PM 52.0°F11.1°C 33.4°F0.8°C 49% 5.0 mph ENE8.0 kmh ENE 22.0 mph35.4 kmh 210.32 in7122.3 mb 0.00 in0.0 mm 0.00 in0.0 mm 0.00 in0.0 mm
12:25 PM 52.0°F11.1°C 33.4°F0.8°C 49% 7.0 mph WSW11.3 kmh WSW 22.0 mph35.4 kmh 210.32 in7122.3 mb 0.00 in0.0 mm 0.00 in0.0 mm 0.00 in0.0 mm
12:30 PM 52.0°F11.1°C 33.4°F0.8°C 49% 16.0 mph WNW25.7 kmh WNW 22.0 mph35.4 kmh 210.33 in7122.6 mb 0.00 in0.0 mm 0.00 in0.0 mm 0.00 in0.0 mm
12:35 PM 52.0°F11.1°C 32.9°F0.5°C 48% 9.0 mph W14.5 kmh W 22.0 mph35.4 kmh 210.33 in7122.6 mb 0.00 in0.0 mm 0.00 in0.0 mm 0.00 in0.0 mm
12:40 PM 53.0°F11.7°C 34.3°F1.3°C 49% 7.0 mph NNW11.3 kmh NNW 22.0 mph35.4 kmh 210.32 in7122.3 mb 0.00 in0.0 mm 0.00 in0.0 mm 0.00 in0.0 mm
12:45 PM 52.0°F11.1°C 33.4°F0.8°C 49% 9.0 mph WNW14.5 kmh WNW 22.0 mph35.4 kmh 210.32 in7122.3 mb 0.00 in0.0 mm 0.00 in0.0 mm 0.00 in0.0 mm
12:50 PM 53.0°F11.7°C 34.3°F1.3°C 49% 7.0 mph SSW11.3 kmh SSW 22.0 mph35.4 kmh 210.32 in7122.3 mb 0.00 in0.0 mm 0.00 in0.0 mm 0.00 in0.0 mm
12:55 PM 53.0°F11.7°C 34.3°F1.3°C 49% 6.0 mph NNW9.7 kmh NNW 22.0 mph35.4 kmh 210.32 in7122.3 mb 0.00 in0.0 mm 0.00 in0.0 mm 0.00 in0.0 mm
01:00 PM 53.0°F11.7°C 34.3°F1.3°C 49% 10.0 mph NW16.1 kmh NW 22.0 mph35.4 kmh 210.33 in7122.6 mb 0.00 in0.0 mm 0.00 in0.0 mm 0.00 in0.0 mm
01:05 PM 53.0°F11.7°C 34.3°F1.3°C 49% 3.0 mph NNW4.8 kmh NNW 22.0 mph35.4 kmh 210.33 in7122.6 mb 0.00 in0.0 mm 0.00 in0.0 mm 0.00 in0.0 mm
01:10 PM 53.0°F11.7°C 34.3°F1.3°C 49% 9.0 mph W14.5 kmh W 22.0 mph35.4 kmh 210.33 in7122.6 mb 0.00 in0.0 mm 0.00 in0.0 mm 0.00 in0.0 mm
01:15 PM 53.0°F11.7°C 34.3°F1.3°C 49% 4.0 mph W6.4 kmh W 22.0 mph35.4 kmh 210.33 in7122.6 mb 0.00 in0.0 mm 0.00 in0.0 mm 0.00 in0.0 mm
01:20 PM 53.0°F11.7°C 34.3°F1.3°C 49% 8.0 mph NW12.9 kmh NW 22.0 mph35.4 kmh 210.34 in7122.9 mb 0.00 in0.0 mm 0.00 in0.0 mm 0.00 in0.0 mm
01:25 PM 53.0°F11.7°C 33.8°F1.0°C 48% 7.0 mph W11.3 kmh W 22.0 mph35.4 kmh 210.34 in7122.9 mb 0.00 in0.0 mm 0.00 in0.0 mm 0.00 in0.0 mm
01:30 PM 53.0°F11.7°C 33.8°F1.0°C 48% 2.0 mph E3.2 kmh E 22.0 mph35.4 kmh 210.33 in7122.6 mb 0.00 in0.0 mm 0.00 in0.0 mm 0.00 in0.0 mm
01:35 PM 53.0°F11.7°C 33.8°F1.0°C 48% 11.0 mph WSW17.7 kmh WSW 22.0 mph35.4 kmh 210.33 in7122.6 mb 0.00 in0.0 mm 0.00 in0.0 mm 0.00 in0.0 mm
01:40 PM 53.0°F11.7°C 33.8°F1.0°C 48% 3.0 mph NE4.8 kmh NE 22.0 mph35.4 kmh 210.34 in7122.9 mb 0.00 in0.0 mm 0.00 in0.0 mm 0.00 in0.0 mm
01:45 PM 53.0°F11.7°C 33.8°F1.0°C 48% 9.0 mph SSW14.5 kmh SSW 22.0 mph35.4 kmh 210.34 in7122.9 mb 0.00 in0.0 mm 0.00 in0.0 mm 0.00 in0.0 mm
01:50 PM 53.0°F11.7°C 33.8°F1.0°C 48% 9.0 mph NW14.5 kmh NW 22.0 mph35.4 kmh 210.34 in7122.9 mb 0.00 in0.0 mm 0.00 in0.0 mm 0.00 in0.0 mm
01:55 PM 53.0°F11.7°C 33.8°F1.0°C 48% 5.0 mph SE8.0 kmh SE 22.0 mph35.4 kmh 210.34 in7122.9 mb 0.00 in0.0 mm 0.00 in0.0 mm 0.00 in0.0 mm
02:00 PM 53.0°F11.7°C 33.8°F1.0°C 48% 5.0 mph N8.0 kmh N 22.0 mph35.4 kmh 210.34 in7122.9 mb 0.00 in0.0 mm 0.00 in0.0 mm 0.00 in0.0 mm
02:05 PM 53.0°F11.7°C 33.8°F1.0°C 48% 3.0 mph NNW4.8 kmh NNW 22.0 mph35.4 kmh 210.34 in7122.9 mb 0.00 in0.0 mm 0.00 in0.0 mm 0.00 in0.0 mm
02:10 PM 53.0°F11.7°C 33.8°F1.0°C 48% 9.0 mph W14.5 kmh W 22.0 mph35.4 kmh 210.34 in7122.9 mb 0.00 in0.0 mm 0.00 in0.0 mm 0.00 in0.0 mm
02:15 PM 53.0°F11.7°C 33.8°F1.0°C 48% 10.0 mph N16.1 kmh N 22.0 mph35.4 kmh 210.34 in7122.9 mb 0.00 in0.0 mm 0.00 in0.0 mm 0.00 in0.0 mm
02:20 PM 53.0°F11.7°C 33.8°F1.0°C 48% 11.0 mph SW17.7 kmh SW 22.0 mph35.4 kmh 210.34 in7122.9 mb 0.00 in0.0 mm 0.00 in0.0 mm 0.00 in0.0 mm
02:25 PM 53.0°F11.7°C 34.3°F1.3°C 49% 7.0 mph NNW11.3 kmh NNW 22.0 mph35.4 kmh 210.34 in7122.9 mb 0.00 in0.0 mm 0.00 in0.0 mm 0.00 in0.0 mm
02:30 PM 53.0°F11.7°C 33.8°F1.0°C 48% 4.0 mph WSW6.4 kmh WSW 22.0 mph35.4 kmh 210.34 in7122.9 mb 0.00 in0.0 mm 0.00 in0.0 mm 0.00 in0.0 mm
02:35 PM 53.0°F11.7°C 33.8°F1.0°C 48% 6.0 mph S9.7 kmh S 22.0 mph35.4 kmh 210.34 in7122.9 mb 0.00 in0.0 mm 0.00 in0.0 mm 0.00 in0.0 mm
02:40 PM 53.0°F11.7°C 33.8°F1.0°C 48% 6.0 mph WSW9.7 kmh WSW 22.0 mph35.4 kmh 210.34 in7122.9 mb 0.00 in0.0 mm 0.00 in0.0 mm 0.00 in0.0 mm
02:45 PM 53.0°F11.7°C 33.8°F1.0°C 48% 13.0 mph W20.9 kmh W 22.0 mph35.4 kmh 210.34 in7122.9 mb 0.00 in0.0 mm 0.00 in0.0 mm 0.00 in0.0 mm
02:50 PM 53.0°F11.7°C 33.8°F1.0°C 48% 6.0 mph WSW9.7 kmh WSW 22.0 mph35.4 kmh 210.34 in7122.9 mb 0.00 in0.0 mm 0.00 in0.0 mm 0.00 in0.0 mm
02:55 PM 53.0°F11.7°C 33.8°F1.0°C 48% 9.0 mph W14.5 kmh W 22.0 mph35.4 kmh 210.34 in7122.9 mb 0.00 in0.0 mm 0.00 in0.0 mm 0.00 in0.0 mm
03:00 PM 53.0°F11.7°C 33.8°F1.0°C 48% 5.0 mph NW8.0 kmh NW 22.0 mph35.4 kmh 210.35 in7123.3 mb 0.00 in0.0 mm 0.00 in0.0 mm 0.00 in0.0 mm
03:05 PM 53.0°F11.7°C 33.8°F1.0°C 48% 4.0 mph NW6.4 kmh NW 22.0 mph35.4 kmh 210.35 in7123.3 mb 0.00 in0.0 mm 0.00 in0.0 mm 0.00 in0.0 mm
03:10 PM 53.0°F11.7°C 33.8°F1.0°C 48% 8.0 mph WNW12.9 kmh WNW 22.0 mph35.4 kmh 210.35 in7123.3 mb 0.00 in0.0 mm 0.00 in0.0 mm 0.00 in0.0 mm
03:15 PM 53.0°F11.7°C 33.8°F1.0°C 48% 11.0 mph W17.7 kmh W 22.0 mph35.4 kmh 210.35 in7123.3 mb 0.00 in0.0 mm 0.00 in0.0 mm 0.00 in0.0 mm
03:20 PM 53.0°F11.7°C 33.8°F1.0°C 48% 6.0 mph WNW9.7 kmh WNW 22.0 mph35.4 kmh 210.35 in7123.3 mb 0.00 in0.0 mm 0.00 in0.0 mm 0.00 in0.0 mm
03:25 PM 53.0°F11.7°C 33.8°F1.0°C 48% 7.0 mph W11.3 kmh W 22.0 mph35.4 kmh 210.35 in7123.3 mb 0.00 in0.0 mm 0.00 in0.0 mm 0.00 in0.0 mm
03:30 PM 53.0°F11.7°C 33.8°F1.0°C 48% 9.0 mph NW14.5 kmh NW 22.0 mph35.4 kmh 210.35 in7123.3 mb 0.00 in0.0 mm 0.00 in0.0 mm 0.00 in0.0 mm
03:35 PM 53.0°F11.7°C 33.8°F1.0°C 48% 6.0 mph SW9.7 kmh SW 22.0 mph35.4 kmh 210.35 in7123.3 mb 0.00 in0.0 mm 0.00 in0.0 mm 0.00 in0.0 mm
03:40 PM 53.0°F11.7°C 33.8°F1.0°C 48% 10.0 mph WNW16.1 kmh WNW 22.0 mph35.4 kmh 210.36 in7123.6 mb 0.00 in0.0 mm 0.00 in0.0 mm 0.00 in0.0 mm
03:45 PM 52.0°F11.1°C 32.9°F0.5°C 48% 9.0 mph W14.5 kmh W 22.0 mph35.4 kmh 210.36 in7123.6 mb 0.00 in0.0 mm 0.00 in0.0 mm 0.00 in0.0 mm
03:50 PM 52.0°F11.1°C 32.9°F0.5°C 48% 16.0 mph W25.7 kmh W 22.0 mph35.4 kmh 210.36 in7123.6 mb 0.00 in0.0 mm 0.00 in0.0 mm 0.00 in0.0 mm
03:55 PM 52.0°F11.1°C 32.9°F0.5°C 48% 12.0 mph WSW19.3 kmh WSW 22.0 mph35.4 kmh 210.36 in7123.6 mb 0.00 in0.0 mm 0.00 in0.0 mm 0.00 in0.0 mm
04:00 PM 52.0°F11.1°C 32.9°F0.5°C 48% 7.0 mph NW11.3 kmh NW 22.0 mph35.4 kmh 210.37 in7123.9 mb 0.00 in0.0 mm 0.00 in0.0 mm 0.00 in0.0 mm
04:05 PM 52.0°F11.1°C 32.9°F0.5°C 48% 2.0 mph WSW3.2 kmh WSW 22.0 mph35.4 kmh 210.37 in7123.9 mb 0.00 in0.0 mm 0.00 in0.0 mm 0.00 in0.0 mm
04:10 PM 52.0°F11.1°C 32.9°F0.5°C 48% 9.0 mph NW14.5 kmh NW 22.0 mph35.4 kmh 210.38 in7124.3 mb 0.00 in0.0 mm 0.00 in0.0 mm 0.00 in0.0 mm
04:15 PM 52.0°F11.1°C 32.9°F0.5°C 48% 2.0 mph ESE3.2 kmh ESE 22.0 mph35.4 kmh 210.38 in7124.3 mb 0.00 in0.0 mm 0.00 in0.0 mm 0.00 in0.0 mm
04:20 PM 52.0°F11.1°C 32.9°F0.5°C 48% 8.0 mph SW12.9 kmh SW 22.0 mph35.4 kmh 210.38 in7124.3 mb 0.00 in0.0 mm 0.00 in0.0 mm 0.00 in0.0 mm
04:25 PM 52.0°F11.1°C 32.4°F0.2°C 47% 3.0 mph NW4.8 kmh NW 22.0 mph35.4 kmh 210.38 in7124.3 mb 0.00 in0.0 mm 0.00 in0.0 mm 0.00 in0.0 mm
04:30 PM 52.0°F11.1°C 32.9°F0.5°C 48% 9.0 mph WSW14.5 kmh WSW 22.0 mph35.4 kmh 210.37 in7123.9 mb 0.00 in0.0 mm 0.00 in0.0 mm 0.00 in0.0 mm
04:35 PM 52.0°F11.1°C 32.9°F0.5°C 48% 6.0 mph W9.7 kmh W 22.0 mph35.4 kmh 210.37 in7123.9 mb 0.00 in0.0 mm 0.00 in0.0 mm 0.00 in0.0 mm
04:40 PM 51.0°F10.6°C 32.0°F0.0°C 48% 12.0 mph W19.3 kmh W 22.0 mph35.4 kmh 210.38 in7124.3 mb 0.00 in0.0 mm 0.00 in0.0 mm 0.00 in0.0 mm
04:45 PM 51.0°F10.6°C 32.0°F0.0°C 48% 5.0 mph WNW8.0 kmh WNW 22.0 mph35.4 kmh 210.38 in7124.3 mb 0.00 in0.0 mm 0.00 in0.0 mm 0.00 in0.0 mm
04:50 PM 52.0°F11.1°C 32.9°F0.5°C 48% 7.0 mph NW11.3 kmh NW 22.0 mph35.4 kmh 210.39 in7124.6 mb 0.00 in0.0 mm 0.00 in0.0 mm 0.00 in0.0 mm
04:55 PM 51.0°F10.6°C 32.5°F0.3°C 49% 6.0 mph WSW9.7 kmh WSW 22.0 mph35.4 kmh 210.39 in7124.6 mb 0.00 in0.0 mm 0.00 in0.0 mm 0.00 in0.0 mm
05:00 PM 51.0°F10.6°C 32.0°F0.0°C 48% 13.0 mph NW20.9 kmh NW 22.0 mph35.4 kmh 210.39 in7124.6 mb 0.00 in0.0 mm 0.00 in0.0 mm 0.00 in0.0 mm
05:05 PM 51.0°F10.6°C 32.5°F0.3°C 49% 3.0 mph SW4.8 kmh SW 22.0 mph35.4 kmh 210.39 in7124.6 mb 0.00 in0.0 mm 0.00 in0.0 mm 0.00 in0.0 mm
05:10 PM 51.0°F10.6°C 32.0°F0.0°C 48% 4.0 mph WNW6.4 kmh WNW 22.0 mph35.4 kmh 210.40 in7125.0 mb 0.00 in0.0 mm 0.00 in0.0 mm 0.00 in0.0 mm
05:15 PM 51.0°F10.6°C 32.0°F0.0°C 48% 4.0 mph SW6.4 kmh SW 22.0 mph35.4 kmh 210.40 in7125.0 mb 0.00 in0.0 mm 0.00 in0.0 mm 0.00 in0.0 mm
05:20 PM 51.0°F10.6°C 32.5°F0.3°C 49% 9.0 mph SW14.5 kmh SW 22.0 mph35.4 kmh 210.41 in7125.3 mb 0.00 in0.0 mm 0.00 in0.0 mm 0.00 in0.0 mm
05:25 PM 51.0°F10.6°C 30.9°F-0.6°C 46% 7.0 mph NNW11.3 kmh NNW 22.0 mph35.4 kmh 210.41 in7125.3 mb 0.00 in0.0 mm 0.00 in0.0 mm 0.00 in0.0 mm
05:30 PM 51.0°F10.6°C 32.0°F0.0°C 48% 6.0 mph SW9.7 kmh SW 22.0 mph35.4 kmh 210.41 in7125.3 mb 0.00 in0.0 mm 0.00 in0.0 mm 0.00 in0.0 mm
05:35 PM 50.0°F10.0°C 31.1°F-0.5°C 48% 3.0 mph NE4.8 kmh NE 22.0 mph35.4 kmh 210.41 in7125.3 mb 0.00 in0.0 mm 0.00 in0.0 mm 0.00 in0.0 mm
05:40 PM 50.0°F10.0°C 32.1°F0.1°C 50% 4.0 mph WSW6.4 kmh WSW 22.0 mph35.4 kmh 210.41 in7125.3 mb 0.00 in0.0 mm 0.00 in0.0 mm 0.00 in0.0 mm
05:45 PM 50.0°F10.0°C 29.5°F-1.4°C 45% 12.0 mph WNW19.3 kmh WNW 22.0 mph35.4 kmh 210.41 in7125.3 mb 0.00 in0.0 mm 0.00 in0.0 mm 0.00 in0.0 mm
05:50 PM 50.0°F10.0°C 30.0°F-1.1°C 46% 6.0 mph SW9.7 kmh SW 22.0 mph35.4 kmh 210.41 in7125.3 mb 0.00 in0.0 mm 0.00 in0.0 mm 0.00 in0.0 mm
05:55 PM 50.0°F10.0°C 31.1°F-0.5°C 48% 2.0 mph W3.2 kmh W 22.0 mph35.4 kmh 210.41 in7125.3 mb 0.00 in0.0 mm 0.00 in0.0 mm 0.00 in0.0 mm
06:00 PM 50.0°F10.0°C 30.5°F-0.8°C 47% 7.0 mph WNW11.3 kmh WNW 22.0 mph35.4 kmh 210.41 in7125.3 mb 0.00 in0.0 mm 0.00 in0.0 mm 0.00 in0.0 mm
06:05 PM 50.0°F10.0°C 30.5°F-0.8°C 47% 7.0 mph NW11.3 kmh NW 22.0 mph35.4 kmh 210.41 in7125.3 mb 0.00 in0.0 mm 0.00 in0.0 mm 0.00 in0.0 mm
06:10 PM 50.0°F10.0°C 30.5°F-0.8°C 47% 6.0 mph NW9.7 kmh NW 22.0 mph35.4 kmh 210.41 in7125.3 mb 0.00 in0.0 mm 0.00 in0.0 mm 0.00 in0.0 mm
06:15 PM 50.0°F10.0°C 32.1°F0.1°C 50% 8.0 mph W12.9 kmh W 22.0 mph35.4 kmh 210.41 in7125.3 mb 0.00 in0.0 mm 0.00 in0.0 mm 0.00 in0.0 mm
06:20 PM 50.0°F10.0°C 30.0°F-1.1°C 46% 7.0 mph WNW11.3 kmh WNW 22.0 mph35.4 kmh 210.42 in7125.6 mb 0.00 in0.0 mm 0.00 in0.0 mm 0.00 in0.0 mm
06:25 PM 49.0°F9.4°C 28.6°F-1.9°C 45% 7.0 mph SW11.3 kmh SW 22.0 mph35.4 kmh 210.42 in7125.6 mb 0.00 in0.0 mm 0.00 in0.0 mm 0.00 in0.0 mm
06:30 PM 49.0°F9.4°C 29.6°F-1.3°C 47% 11.0 mph NW17.7 kmh NW 22.0 mph35.4 kmh 210.42 in7125.6 mb 0.00 in0.0 mm 0.00 in0.0 mm 0.00 in0.0 mm
06:35 PM 49.0°F9.4°C 30.6°F-0.8°C 49% 7.0 mph NW11.3 kmh NW 22.0 mph35.4 kmh 210.42 in7125.6 mb 0.00 in0.0 mm 0.00 in0.0 mm 0.00 in0.0 mm
06:40 PM 49.0°F9.4°C 30.1°F-1.1°C 48% 8.0 mph NW12.9 kmh NW 22.0 mph35.4 kmh 210.43 in7126.0 mb 0.00 in0.0 mm 0.00 in0.0 mm 0.00 in0.0 mm
06:45 PM 49.0°F9.4°C 29.1°F-1.6°C 46% 3.0 mph NW4.8 kmh NW 22.0 mph35.4 kmh 210.43 in7126.0 mb 0.00 in0.0 mm 0.00 in0.0 mm 0.00 in0.0 mm
06:50 PM 49.0°F9.4°C 29.6°F-1.3°C 47% 8.0 mph NW12.9 kmh NW 22.0 mph35.4 kmh 210.43 in7126.0 mb 0.00 in0.0 mm 0.00 in0.0 mm 0.00 in0.0 mm
06:55 PM 49.0°F9.4°C 30.1°F-1.1°C 48% 16.0 mph NW25.7 kmh NW 22.0 mph35.4 kmh 210.43 in7126.0 mb 0.00 in0.0 mm 0.00 in0.0 mm 0.00 in0.0 mm
07:00 PM 49.0°F9.4°C 29.6°F-1.3°C 47% 7.0 mph NW11.3 kmh NW 22.0 mph35.4 kmh 210.43 in7126.0 mb 0.00 in0.0 mm 0.00 in0.0 mm 0.00 in0.0 mm
07:05 PM 49.0°F9.4°C 29.6°F-1.3°C 47% 6.0 mph WNW9.7 kmh WNW 22.0 mph35.4 kmh 210.43 in7126.0 mb 0.00 in0.0 mm 0.00 in0.0 mm 0.00 in0.0 mm
07:10 PM 49.0°F9.4°C 29.6°F-1.3°C 47% 5.0 mph NW8.0 kmh NW 22.0 mph35.4 kmh 210.43 in7126.0 mb 0.00 in0.0 mm 0.00 in0.0 mm 0.00 in0.0 mm
07:15 PM 49.0°F9.4°C 29.6°F-1.3°C 47% 6.0 mph NW9.7 kmh NW 22.0 mph35.4 kmh 210.43 in7126.0 mb 0.00 in0.0 mm 0.00 in0.0 mm 0.00 in0.0 mm
07:20 PM 49.0°F9.4°C 29.6°F-1.3°C 47% 9.0 mph SW14.5 kmh SW 22.0 mph35.4 kmh 210.44 in7126.3 mb 0.00 in0.0 mm 0.00 in0.0 mm 0.00 in0.0 mm
07:25 PM 49.0°F9.4°C 29.6°F-1.3°C 47% 8.0 mph W12.9 kmh W 22.0 mph35.4 kmh 210.44 in7126.3 mb 0.00 in0.0 mm 0.00 in0.0 mm 0.00 in0.0 mm
07:30 PM 49.0°F9.4°C 29.6°F-1.3°C 47% 5.0 mph W8.0 kmh W 22.0 mph35.4 kmh 210.44 in7126.3 mb 0.00 in0.0 mm 0.00 in0.0 mm 0.00 in0.0 mm
07:35 PM 49.0°F9.4°C 29.6°F-1.3°C 47% 7.0 mph WSW11.3 kmh WSW 22.0 mph35.4 kmh 210.44 in7126.3 mb 0.00 in0.0 mm 0.00 in0.0 mm 0.00 in0.0 mm
07:40 PM 49.0°F9.4°C 29.6°F-1.3°C 47% 5.0 mph NW8.0 kmh NW 22.0 mph35.4 kmh 210.45 in7126.7 mb 0.00 in0.0 mm 0.00 in0.0 mm 0.00 in0.0 mm
07:45 PM 49.0°F9.4°C 29.6°F-1.3°C 47% 3.0 mph WNW4.8 kmh WNW 22.0 mph35.4 kmh 210.45 in7126.7 mb 0.00 in0.0 mm 0.00 in0.0 mm 0.00 in0.0 mm
07:50 PM 49.0°F9.4°C 29.6°F-1.3°C 47% 9.0 mph WSW14.5 kmh WSW 22.0 mph35.4 kmh 210.45 in7126.7 mb 0.00 in0.0 mm 0.00 in0.0 mm 0.00 in0.0 mm
07:55 PM 49.0°F9.4°C 29.6°F-1.3°C 47% 4.0 mph WNW6.4 kmh WNW 22.0 mph35.4 kmh 210.45 in7126.7 mb 0.00 in0.0 mm 0.00 in0.0 mm 0.00 in0.0 mm
08:00 PM 49.0°F9.4°C 29.6°F-1.3°C 47% 9.0 mph NW14.5 kmh NW 22.0 mph35.4 kmh 210.45 in7126.7 mb 0.00 in0.0 mm 0.00 in0.0 mm 0.00 in0.0 mm
08:05 PM 49.0°F9.4°C 29.6°F-1.3°C 47% 3.0 mph WSW4.8 kmh WSW 22.0 mph35.4 kmh 210.45 in7126.7 mb 0.00 in0.0 mm 0.00 in0.0 mm 0.00 in0.0 mm
08:10 PM 49.0°F9.4°C 29.6°F-1.3°C 47% 7.0 mph W11.3 kmh W 22.0 mph35.4 kmh 210.46 in7127.0 mb 0.00 in0.0 mm 0.00 in0.0 mm 0.00 in0.0 mm
08:15 PM 49.0°F9.4°C 29.6°F-1.3°C 47% 9.0 mph NW14.5 kmh NW 22.0 mph35.4 kmh 210.46 in7127.0 mb 0.00 in0.0 mm 0.00 in0.0 mm 0.00 in0.0 mm
08:20 PM 49.0°F9.4°C 29.6°F-1.3°C 47% 2.0 mph NNW3.2 kmh NNW 22.0 mph35.4 kmh 210.46 in7127.0 mb 0.00 in0.0 mm 0.00 in0.0 mm 0.00 in0.0 mm
08:25 PM 49.0°F9.4°C 29.6°F-1.3°C 47% Calm Calm 22.0 mph35.4 kmh 210.46 in7127.0 mb 0.00 in0.0 mm 0.00 in0.0 mm 0.00 in0.0 mm
08:30 PM 49.0°F9.4°C 29.6°F-1.3°C 47% 13.0 mph NW20.9 kmh NW 22.0 mph35.4 kmh 210.47 in7127.3 mb 0.00 in0.0 mm 0.00 in0.0 mm 0.00 in0.0 mm
08:35 PM 48.0°F8.9°C 28.7°F-1.8°C 47% 2.0 mph SSE3.2 kmh SSE 22.0 mph35.4 kmh 210.47 in7127.3 mb 0.00 in0.0 mm 0.00 in0.0 mm 0.00 in0.0 mm
08:40 PM 48.0°F8.9°C 28.7°F-1.8°C 47% 10.0 mph NW16.1 kmh NW 22.0 mph35.4 kmh 210.48 in7127.7 mb 0.00 in0.0 mm 0.00 in0.0 mm 0.00 in0.0 mm
08:45 PM 48.0°F8.9°C 28.7°F-1.8°C 47% 17.0 mph NNW27.4 kmh NNW 25.0 mph40.2 kmh 210.48 in7127.7 mb 0.00 in0.0 mm 0.00 in0.0 mm 0.00 in0.0 mm
08:50 PM 48.0°F8.9°C 28.7°F-1.8°C 47% 6.0 mph W9.7 kmh W 25.0 mph40.2 kmh 210.49 in7128.0 mb 0.00 in0.0 mm 0.00 in0.0 mm 0.00 in0.0 mm
08:55 PM 48.0°F8.9°C 28.7°F-1.8°C 47% 5.0 mph NW8.0 kmh NW 25.0 mph40.2 kmh 210.49 in7128.0 mb 0.00 in0.0 mm 0.00 in0.0 mm 0.00 in0.0 mm
09:00 PM 48.0°F8.9°C 28.7°F-1.8°C 47% 4.0 mph SSW6.4 kmh SSW 25.0 mph40.2 kmh 210.49 in7128.0 mb 0.00 in0.0 mm 0.00 in0.0 mm 0.00 in0.0 mm
09:05 PM 48.0°F8.9°C 28.7°F-1.8°C 47% 6.0 mph W9.7 kmh W 25.0 mph40.2 kmh 210.49 in7128.0 mb 0.00 in0.0 mm 0.00 in0.0 mm 0.00 in0.0 mm
09:10 PM 48.0°F8.9°C 28.7°F-1.8°C 47% 14.0 mph WNW22.5 kmh WNW 25.0 mph40.2 kmh 210.49 in7128.0 mb 0.00 in0.0 mm 0.00 in0.0 mm 0.00 in0.0 mm
09:15 PM 48.0°F8.9°C 28.7°F-1.8°C 47% 10.0 mph NW16.1 kmh NW 25.0 mph40.2 kmh 210.49 in7128.0 mb 0.00 in0.0 mm 0.00 in0.0 mm 0.00 in0.0 mm
09:20 PM 48.0°F8.9°C 28.7°F-1.8°C 47% 5.0 mph NW8.0 kmh NW 25.0 mph40.2 kmh 210.50 in7128.4 mb 0.00 in0.0 mm 0.00 in0.0 mm 0.00 in0.0 mm
09:25 PM 48.0°F8.9°C 28.7°F-1.8°C 47% 8.0 mph NW12.9 kmh NW 25.0 mph40.2 kmh 210.50 in7128.4 mb 0.00 in0.0 mm 0.00 in0.0 mm 0.00 in0.0 mm
09:30 PM 48.0°F8.9°C 28.7°F-1.8°C 47% 3.0 mph W4.8 kmh W 25.0 mph40.2 kmh 210.51 in7128.7 mb 0.00 in0.0 mm 0.00 in0.0 mm 0.00 in0.0 mm
09:35 PM 48.0°F8.9°C 28.7°F-1.8°C 47% 7.0 mph WNW11.3 kmh WNW 25.0 mph40.2 kmh 210.51 in7128.7 mb 0.00 in0.0 mm 0.00 in0.0 mm 0.00 in0.0 mm
09:40 PM 48.0°F8.9°C 28.7°F-1.8°C 47% 9.0 mph W14.5 kmh W 25.0 mph40.2 kmh 210.51 in7128.7 mb 0.00 in0.0 mm 0.00 in0.0 mm 0.00 in0.0 mm
09:45 PM 48.0°F8.9°C 28.7°F-1.8°C 47% 6.0 mph NW9.7 kmh NW 25.0 mph40.2 kmh 210.51 in7128.7 mb 0.00 in0.0 mm 0.00 in0.0 mm 0.00 in0.0 mm
09:50 PM 48.0°F8.9°C 28.7°F-1.8°C 47% 7.0 mph N11.3 kmh N 25.0 mph40.2 kmh 210.51 in7128.7 mb 0.00 in0.0 mm 0.00 in0.0 mm 0.00 in0.0 mm
09:55 PM 48.0°F8.9°C 28.7°F-1.8°C 47% 7.0 mph WNW11.3 kmh WNW 25.0 mph40.2 kmh 210.51 in7128.7 mb 0.00 in0.0 mm 0.00 in0.0 mm 0.00 in0.0 mm
10:00 PM 48.0°F8.9°C 28.7°F-1.8°C 47% 6.0 mph NNW9.7 kmh NNW 25.0 mph40.2 kmh 210.51 in7128.7 mb 0.00 in0.0 mm 0.00 in0.0 mm 0.00 in0.0 mm
10:05 PM 48.0°F8.9°C 28.7°F-1.8°C 47% 8.0 mph NW12.9 kmh NW 25.0 mph40.2 kmh 210.51 in7128.7 mb 0.00 in0.0 mm 0.00 in0.0 mm 0.00 in0.0 mm
10:10 PM 48.0°F8.9°C 28.7°F-1.8°C 47% 6.0 mph WNW9.7 kmh WNW 25.0 mph40.2 kmh 210.51 in7128.7 mb 0.00 in0.0 mm 0.00 in0.0 mm 0.00 in0.0 mm
10:15 PM 48.0°F8.9°C 28.7°F-1.8°C 47% 9.0 mph WNW14.5 kmh WNW 25.0 mph40.2 kmh 210.51 in7128.7 mb 0.00 in0.0 mm 0.00 in0.0 mm 0.00 in0.0 mm
10:20 PM 48.0°F8.9°C 28.7°F-1.8°C 47% 6.0 mph NW9.7 kmh NW 25.0 mph40.2 kmh 210.51 in7128.7 mb 0.00 in0.0 mm 0.00 in0.0 mm 0.00 in0.0 mm
10:25 PM 48.0°F8.9°C 28.7°F-1.8°C 47% 10.0 mph NW16.1 kmh NW 25.0 mph40.2 kmh 210.51 in7128.7 mb 0.00 in0.0 mm 0.00 in0.0 mm 0.00 in0.0 mm
10:30 PM 48.0°F8.9°C 28.7°F-1.8°C 47% 10.0 mph W16.1 kmh W 25.0 mph40.2 kmh 210.51 in7128.7 mb 0.00 in0.0 mm 0.00 in0.0 mm 0.00 in0.0 mm
10:35 PM 48.0°F8.9°C 28.2°F-2.1°C 46% 19.0 mph NW30.6 kmh NW 25.0 mph40.2 kmh 210.51 in7128.7 mb 0.00 in0.0 mm 0.00 in0.0 mm 0.00 in0.0 mm
10:40 PM 48.0°F8.9°C 28.7°F-1.8°C 47% 5.0 mph N8.0 kmh N 25.0 mph40.2 kmh 210.51 in7128.7 mb 0.00 in0.0 mm 0.00 in0.0 mm 0.00 in0.0 mm
10:45 PM 48.0°F8.9°C 28.7°F-1.8°C 47% 12.0 mph W19.3 kmh W 25.0 mph40.2 kmh 210.51 in7128.7 mb 0.00 in0.0 mm 0.00 in0.0 mm 0.00 in0.0 mm
10:50 PM 48.0°F8.9°C 28.7°F-1.8°C 47% 6.0 mph NW9.7 kmh NW 25.0 mph40.2 kmh 210.52 in7129.0 mb 0.00 in0.0 mm 0.00 in0.0 mm 0.00 in0.0 mm
10:55 PM 48.0°F8.9°C 28.7°F-1.8°C 47% 4.0 mph WNW6.4 kmh WNW 25.0 mph40.2 kmh 210.52 in7129.0 mb 0.00 in0.0 mm 0.00 in0.0 mm 0.00 in0.0 mm
11:00 PM 47.0°F8.3°C 27.8°F-2.3°C 47% 5.0 mph WNW8.0 kmh WNW 25.0 mph40.2 kmh 210.52 in7129.0 mb 0.00 in0.0 mm 0.00 in0.0 mm 0.00 in0.0 mm
11:05 PM 47.0°F8.3°C 27.8°F-2.3°C 47% 5.0 mph NW8.0 kmh NW 25.0 mph40.2 kmh 210.52 in7129.0 mb 0.00 in0.0 mm 0.00 in0.0 mm 0.00 in0.0 mm
11:10 PM 47.0°F8.3°C 27.8°F-2.3°C 47% 8.0 mph WNW12.9 kmh WNW 25.0 mph40.2 kmh 210.53 in7129.4 mb 0.00 in0.0 mm 0.00 in0.0 mm 0.00 in0.0 mm
11:15 PM 47.0°F8.3°C 27.8°F-2.3°C 47% 12.0 mph W19.3 kmh W 25.0 mph40.2 kmh 210.53 in7129.4 mb 0.00 in0.0 mm 0.00 in0.0 mm 0.00 in0.0 mm
11:20 PM 47.0°F8.3°C 27.8°F-2.3°C 47% 6.0 mph WNW9.7 kmh WNW 25.0 mph40.2 kmh 210.53 in7129.4 mb 0.00 in0.0 mm 0.00 in0.0 mm 0.00 in0.0 mm
11:25 PM 47.0°F8.3°C 27.8°F-2.3°C 47% 5.0 mph SW8.0 kmh SW 25.0 mph40.2 kmh 210.53 in7129.4 mb 0.00 in0.0 mm 0.00 in0.0 mm 0.00 in0.0 mm
11:30 PM 47.0°F8.3°C 27.8°F-2.3°C 47% 4.0 mph NNW6.4 kmh NNW 25.0 mph40.2 kmh 210.53 in7129.4 mb 0.00 in0.0 mm 0.00 in0.0 mm 0.00 in0.0 mm
11:35 PM 47.0°F8.3°C 27.8°F-2.3°C 47% 9.0 mph WSW14.5 kmh WSW 25.0 mph40.2 kmh 210.53 in7129.4 mb 0.00 in0.0 mm 0.00 in0.0 mm 0.00 in0.0 mm
11:40 PM 47.0°F8.3°C 27.8°F-2.3°C 47% 7.0 mph WNW11.3 kmh WNW 25.0 mph40.2 kmh 210.54 in7129.7 mb 0.00 in0.0 mm 0.00 in0.0 mm 0.00 in0.0 mm
11:45 PM 47.0°F8.3°C 27.8°F-2.3°C 47% 7.0 mph WNW11.3 kmh WNW 25.0 mph40.2 kmh 210.54 in7129.7 mb 0.00 in0.0 mm 0.00 in0.0 mm 0.00 in0.0 mm
11:50 PM 47.0°F8.3°C 27.8°F-2.3°C 47% 7.0 mph W11.3 kmh W 25.0 mph40.2 kmh 210.54 in7129.7 mb 0.00 in0.0 mm 0.00 in0.0 mm 0.00 in0.0 mm
11:55 PM 47.0°F8.3°C 27.8°F-2.3°C 47% 3.0 mph NE4.8 kmh NE 25.0 mph40.2 kmh 210.54 in7129.7 mb 0.00 in0.0 mm 0.00 in0.0 mm 0.00 in0.0 mm